^^
Meteo Knjazevac Station Historical Data
Daily Summary for March 5, 2021 Units:  Metric    English   Both
Daily Weekly Monthly Yearly Custom
  High: Low: Average:
Temperature: 13.2 °C 8 °C 9.7 °C
Dew Point: 9 °C 6.1 °C 7.2 °C
Humidity: 91% 75% 85%
Wind Speed: 4.8km/h 0km/h 1.1km/h
Wind Gust: 8km/h - -
Wind- - WNW
Pressure: 1020.9 hPa 1019.2 hPa -
Precipitation: 0 mm    
Historical Graphs
 
 
Tabular Data for March 5, 2021
Time Temperature Dew Point Pressure Wind Wind Speed Wind Gust Humidity Rainfall Rate (Hourly) solar Conditions
00:00 13.2 °C 8.8 °C 1019.2 hPa Calm   1.6 km/h 75% 0 mm 0 W/m2
00:10 12.9 °C 9 °C 1019.2 hPa Calm   1.6 km/h 77% 0 mm 0 W/m2
00:20 12.6 °C 8.7 °C 1019.2 hPa Calm   3.2 km/h 77% 0 mm 0 W/m2
00:30 12.3 °C 8.4 °C 1019.2 hPa NW 1.6 km/h 3.2 km/h 77% 0 mm 0 W/m2
00:40 11.9 °C 8.2 °C 1019.2 hPa West 1.6 km/h 3.2 km/h 78% 0 mm 0 W/m2
00:50 11.8 °C 8.3 °C 1019.2 hPa WNW 3.2 km/h 8 km/h 79% 0 mm 0 W/m2
01:00 11.6 °C 8.3 °C 1019.2 hPa West 1.6 km/h 6.4 km/h 80% 0 mm 0 W/m2
01:10 11.6 °C 8.3 °C 1019.2 hPa WNW 1.6 km/h 3.2 km/h 80% 0 mm 0 W/m2
01:20 11.3 °C 8 °C 1019.2 hPa WNW 1.6 km/h 4.8 km/h 80% 0 mm 0 W/m2
01:30 11.2 °C 7.9 °C 1019.2 hPa WNW 1.6 km/h 4.8 km/h 80% 0 mm 0 W/m2
01:40 11 °C 7.7 °C 1019.2 hPa Calm   3.2 km/h 80% 0 mm 0 W/m2
01:50 10.7 °C 7.6 °C 1019.2 hPa Calm   3.2 km/h 81% 0 mm 0 W/m2
02:00 10.6 °C 7.8 °C 1019.2 hPa WNW 3.2 km/h 6.4 km/h 83% 0 mm 0 W/m2
02:10 10.6 °C 7.8 °C 1019.2 hPa West 1.6 km/h 6.4 km/h 83% 0 mm 0 W/m2
02:20 10.3 °C 7.6 °C 1019.2 hPa WNW 3.2 km/h 4.8 km/h 83% 0 mm 0 W/m2
02:30 10.3 °C 7.7 °C 1019.5 hPa WNW 1.6 km/h 6.4 km/h 84% 0 mm 0 W/m2
02:40 10.1 °C 7.3 °C 1019.5 hPa Calm   1.6 km/h 83% 0 mm 0 W/m2
02:50 9.9 °C 7.2 °C 1019.5 hPa Calm   3.2 km/h 83% 0 mm 0 W/m2
03:00 9.8 °C 7.2 °C 1019.5 hPa Calm   3.2 km/h 84% 0 mm 0 W/m2
03:10 9.7 °C 7.1 °C 1019.5 hPa Calm   3.2 km/h 84% 0 mm 0 W/m2
03:20 9.5 °C 7.1 °C 1019.5 hPa Calm   3.2 km/h 85% 0 mm 0 W/m2
03:30 9.5 °C 7.1 °C 1019.9 hPa Calm   3.2 km/h 85% 0 mm 0 W/m2
03:40 9.3 °C 6.9 °C 1019.9 hPa Calm   1.6 km/h 85% 0 mm 0 W/m2
03:50 9.2 °C 6.8 °C 1019.9 hPa WSW 1.6 km/h 3.2 km/h 85% 0 mm 0 W/m2
04:00 9.1 °C 6.8 °C 1019.9 hPa West 3.2 km/h 4.8 km/h 86% 0 mm 0 W/m2
04:10 9 °C 6.8 °C 1019.9 hPa WNW 1.6 km/h 4.8 km/h 86% 0 mm 0 W/m2
04:20 8.9 °C 6.7 °C 1019.9 hPa Calm   3.2 km/h 86% 0 mm 0 W/m2
04:30 8.9 °C 6.7 °C 1019.9 hPa WNW 1.6 km/h 3.2 km/h 86% 0 mm 0 W/m2
04:40 8.8 °C 6.9 °C 1019.9 hPa West 3.2 km/h 4.8 km/h 88% 0 mm 0 W/m2
04:50 8.8 °C 6.9 °C 1019.9 hPa Calm   6.4 km/h 88% 0 mm 0 W/m2
05:00 8.6 °C 6.4 °C 1019.9 hPa Calm   3.2 km/h 86% 0 mm 0 W/m2
05:10 8.5 °C 6.3 °C 1019.9 hPa Calm     86% 0 mm 0 W/m2
05:20 8.3 °C 6.1 °C 1019.9 hPa NW 1.6 km/h 1.6 km/h 86% 0 mm 0 W/m2
05:30 8.2 °C 6.3 °C 1019.9 hPa NW 1.6 km/h 3.2 km/h 88% 0 mm 0 W/m2
05:40 8 °C 6.1 °C 1019.9 hPa Calm   1.6 km/h 88% 0 mm 0 W/m2
05:50 8 °C 6.3 °C 1020.2 hPa WNW 3.2 km/h 4.8 km/h 89% 0 mm 0 W/m2
06:00 8 °C 6.4 °C 1020.2 hPa West 4.8 km/h 8 km/h 90% 0 mm 3 W/m2
06:10 8 °C 6.4 °C 1020.2 hPa Calm   6.4 km/h 90% 0 mm 12 W/m2
06:20 8.1 °C 6.6 °C 1020.2 hPa WNW 1.6 km/h 3.2 km/h 90% 0 mm 23 W/m2
06:30 8 °C 6.3 °C 1020.5 hPa Calm   3.2 km/h 89% 0 mm 35 W/m2
06:40 8 °C 6.3 °C 1020.5 hPa Calm   3.2 km/h 89% 0 mm 48 W/m2
06:50 8 °C 6.3 °C 1020.5 hPa NW 1.6 km/h 3.2 km/h 89% 0 mm 81 W/m2
07:00 8.1 °C 6.6 °C 1020.5 hPa WNW 3.2 km/h 4.8 km/h 90% 0 mm 104 W/m2
07:10 8.3 °C 6.9 °C 1020.5 hPa WNW 1.6 km/h 4.8 km/h 91% 0 mm 129 W/m2
07:20 8.6 °C 7.2 °C 1020.5 hPa Calm   3.2 km/h 91% 0 mm 152 W/m2
07:30 8.8 °C 7.4 °C 1020.9 hPa West 1.6 km/h 3.2 km/h 91% 0 mm 184 W/m2
Knjazevac, Serbia
Compliments of Weather Underground - 2 mb